createdAt,value
2022-09-07T00:10:03.153Z,1529
2022-09-07T00:25:06.072Z,1538
2022-09-07T00:40:02.077Z,1545
2022-09-07T00:55:02.163Z,1555
2022-09-07T01:10:06.349Z,1568
2022-09-07T01:25:03.497Z,1578
2022-09-07T01:40:02.362Z,1586
2022-09-07T01:55:06.484Z,1594
2022-09-07T02:10:04.138Z,1603
2022-09-07T02:25:04.546Z,1607
2022-09-07T02:40:03.381Z,1613
2022-09-07T02:55:03.134Z,1622
2022-09-07T03:10:06.613Z,1631
2022-09-07T03:25:05.180Z,1639
2022-09-07T03:40:02.331Z,1647
2022-09-07T03:55:04.488Z,1656
2022-09-07T04:10:03.585Z,1665
2022-09-07T04:25:06.558Z,1628
2022-09-07T04:40:03.574Z,1565
2022-09-07T04:55:05.408Z,1443
2022-09-07T05:10:04.398Z,1302
2022-09-07T05:25:04.238Z,1161
2022-09-07T05:40:02.055Z,1059
2022-09-07T05:55:05.149Z,983
2022-09-07T06:10:06.396Z,967
2022-09-07T06:25:04.550Z,970
2022-09-07T06:40:03.067Z,964
2022-09-07T07:10:06.443Z,958
2022-09-07T07:25:05.610Z,956
2022-09-07T07:40:04.180Z,955
2022-09-07T07:55:04.438Z,962
2022-09-07T08:10:05.206Z,973
2022-09-07T08:25:06.196Z,991
2022-09-07T08:40:02.265Z,1005
2022-09-07T08:55:05.497Z,1015
2022-09-07T09:10:03.490Z,1027
2022-09-07T09:25:02.343Z,1046
2022-09-07T09:40:04.558Z,1064
2022-09-07T09:55:04.145Z,1080
2022-09-07T10:10:02.542Z,1103
2022-09-07T10:25:05.610Z,1124
2022-09-07T10:40:06.233Z,1125
2022-09-07T10:55:02.056Z,1109
2022-09-07T11:10:06.632Z,1084
2022-09-07T11:25:06.075Z,1044
2022-09-07T11:40:02.152Z,1003
2022-09-07T11:55:04.161Z,974
2022-09-07T12:10:04.228Z,968
2022-09-07T12:25:04.054Z,977
2022-09-07T12:40:06.393Z,997
2022-09-07T12:55:04.473Z,1023
2022-09-07T13:10:02.157Z,1047
2022-09-07T13:25:05.128Z,1068
2022-09-07T13:40:05.428Z,1086
2022-09-07T13:55:05.538Z,1107
2022-09-07T14:10:05.402Z,1127
2022-09-07T14:25:04.564Z,1144
2022-09-07T14:40:06.249Z,1166
2022-09-07T14:55:04.204Z,1192
2022-09-07T15:10:05.580Z,1225
2022-09-07T15:25:03.233Z,1249
2022-09-07T15:40:02.587Z,1275
2022-09-07T15:55:04.104Z,1282
2022-09-07T16:10:06.227Z,1278
2022-09-07T16:25:04.218Z,1258
2022-09-07T16:40:02.397Z,1245
2022-09-07T16:55:04.546Z,1236
2022-09-07T17:10:06.345Z,1250
2022-09-07T17:25:02.503Z,1282
2022-09-07T17:40:04.490Z,1315
2022-09-07T17:55:02.173Z,1335
2022-09-07T18:10:02.342Z,1344
2022-09-07T18:25:05.453Z,1335
2022-09-07T18:40:04.079Z,1302
2022-09-07T18:55:04.380Z,1255
2022-09-07T19:10:04.126Z,1217
2022-09-07T19:25:04.427Z,1191
2022-09-07T19:40:04.319Z,1180
2022-09-07T19:55:02.591Z,1192
2022-09-07T20:10:03.597Z,1233
2022-09-07T20:25:06.437Z,1295
2022-09-07T20:40:04.447Z,1361
2022-09-07T20:55:03.075Z,1426
2022-09-07T21:10:05.535Z,1488
2022-09-07T21:30:05.118Z,1546
2022-09-07T21:45:03.326Z,1591
2022-09-07T22:00:03.163Z,1627
2022-09-07T22:15:05.412Z,1656
2022-09-07T22:30:05.557Z,1681
2022-09-07T22:45:06.076Z,1697
2022-09-07T23:00:04.178Z,1710
2022-09-07T23:15:04.644Z,1725
2022-09-07T23:30:05.268Z,1738
2022-09-07T23:45:03.487Z,1751
